createdAt,value
2023-05-21T00:03:21.321Z,100146.28
2023-05-21T00:08:14.007Z,100143.59
2023-05-21T00:13:05.836Z,100145.91
2023-05-21T00:17:57.491Z,100135.72
2023-05-21T00:22:49.250Z,100138.47
2023-05-21T00:27:41.292Z,100146.00
2023-05-21T00:32:34.504Z,100150.41
2023-05-21T00:37:26.225Z,100147.91
2023-05-21T00:42:18.229Z,100148.97
2023-05-21T00:47:09.901Z,100141.22
2023-05-21T00:52:01.930Z,100133.31
2023-05-21T00:56:53.812Z,100133.31
2023-05-21T01:01:45.785Z,100129.56
2023-05-21T01:06:38.019Z,100131.22
2023-05-21T01:11:41.575Z,100130.41
2023-05-21T01:16:33.262Z,100122.22
2023-05-21T01:21:26.058Z,100123.06
2023-05-21T01:26:18.504Z,100108.00
2023-05-21T01:31:28.212Z,100113.63
2023-05-21T01:36:24.426Z,100104.88
2023-05-21T01:41:18.597Z,100101.97
2023-05-21T01:46:13.054Z,100108.66
2023-05-21T01:51:06.686Z,100105.34
2023-05-21T01:55:59.435Z,100100.13
2023-05-21T02:00:53.885Z,100089.91
2023-05-21T02:05:45.966Z,100091.59
2023-05-21T02:10:37.544Z,100096.19
2023-05-21T02:15:29.418Z,100094.28
2023-05-21T02:20:22.800Z,100092.41
2023-05-21T02:25:16.478Z,100084.69
2023-05-21T02:30:12.648Z,100099.50
2023-05-21T02:35:04.828Z,100087.41
2023-05-21T02:39:56.685Z,100087.16
2023-05-21T02:44:48.389Z,100093.22
2023-05-21T02:49:39.961Z,100092.97
2023-05-21T02:54:31.560Z,100089.44
2023-05-21T02:59:23.823Z,100081.28
2023-05-21T03:04:17.252Z,100088.78
2023-05-21T03:09:09.226Z,100090.63
2023-05-21T03:14:00.929Z,100084.13
2023-05-21T03:18:52.537Z,100082.63
2023-05-21T03:23:44.256Z,100067.19
2023-05-21T03:28:35.973Z,100064.22
2023-05-21T03:33:27.604Z,100052.34
2023-05-21T03:38:19.188Z,100046.88
2023-05-21T03:43:10.830Z,100055.78
2023-05-21T03:48:02.533Z,100055.31
2023-05-21T03:52:54.155Z,100042.97
2023-05-21T03:57:45.725Z,100052.34
2023-05-21T04:02:42.146Z,100050.06
2023-05-21T04:07:33.923Z,100059.59
2023-05-21T04:12:25.557Z,100051.44
2023-05-21T04:17:17.202Z,100053.50
2023-05-21T04:22:10.574Z,100048.94
2023-05-21T04:27:02.211Z,100042.66
2023-05-21T04:31:53.810Z,100042.47
2023-05-21T04:36:46.075Z,100040.41
2023-05-21T04:41:40.969Z,100038.25
2023-05-21T04:46:32.614Z,100040.53
2023-05-21T04:51:27.125Z,100042.72
2023-05-21T04:56:18.883Z,100038.19
2023-05-21T05:01:10.702Z,100044.00
2023-05-21T05:06:04.449Z,100046.31
2023-05-21T05:10:56.205Z,100041.84
2023-05-21T05:15:50.211Z,100043.03
2023-05-21T05:20:42.766Z,100045.88
2023-05-21T05:25:34.365Z,100041.00
2023-05-21T05:30:26.005Z,100042.28
2023-05-21T05:35:17.664Z,100037.06
2023-05-21T05:40:09.545Z,100046.38
2023-05-21T05:45:01.182Z,100043.59
2023-05-21T05:49:52.818Z,100046.84
2023-05-21T05:54:44.370Z,100048.13
2023-05-21T05:59:36.030Z,100055.16
2023-05-21T06:04:30.070Z,100058.06
2023-05-21T06:09:22.220Z,100067.25
2023-05-21T06:14:13.863Z,100063.63
2023-05-21T06:19:05.699Z,100068.50
2023-05-21T06:23:57.338Z,100075.22
2023-05-21T06:28:49.972Z,100077.22
2023-05-21T06:33:41.897Z,100075.84
2023-05-21T06:38:34.046Z,100070.25
2023-05-21T06:43:25.643Z,100081.16
2023-05-21T06:48:17.535Z,100082.47
2023-05-21T06:53:09.289Z,100087.19
2023-05-21T06:58:01.126Z,100086.06
2023-05-21T07:02:52.974Z,100075.94
2023-05-21T07:07:44.728Z,100078.94
2023-05-21T07:17:27.929Z,100075.72
2023-05-21T07:22:19.655Z,100078.97
2023-05-21T07:27:24.766Z,100073.97
2023-05-21T07:32:17.224Z,100084.13
2023-05-21T07:37:08.810Z,100085.19
2023-05-21T07:42:00.575Z,100085.50
2023-05-21T07:46:52.237Z,100074.03
2023-05-21T07:51:44.580Z,100080.34
2023-05-21T07:56:36.201Z,100078.69
2023-05-21T08:01:29.693Z,100089.56
2023-05-21T08:06:22.436Z,100083.72
2023-05-21T08:11:14.081Z,100080.03
2023-05-21T08:16:06.149Z,100071.03
2023-05-21T08:20:58.727Z,100082.72
2023-05-21T08:25:50.565Z,100073.03
2023-05-21T08:30:42.195Z,100068.13
2023-05-21T08:35:33.894Z,100071.91
2023-05-21T08:40:25.595Z,100063.41
2023-05-21T08:45:21.612Z,100065.56
2023-05-21T08:50:20.770Z,100057.00
2023-05-21T08:55:12.960Z,100053.72
2023-05-21T09:00:07.403Z,100058.06
2023-05-21T09:04:59.509Z,100054.59
2023-05-21T09:09:56.885Z,100055.25
2023-05-21T09:14:49.542Z,100046.47
2023-05-21T09:20:12.576Z,100047.28
2023-05-21T09:25:07.895Z,100046.47
2023-05-21T09:29:59.524Z,100038.66
2023-05-21T09:34:51.309Z,100046.59
2023-05-21T09:39:43.394Z,100040.47
2023-05-21T09:44:38.035Z,100040.38
2023-05-21T09:49:30.374Z,100040.59
2023-05-21T09:54:23.243Z,100028.47
2023-05-21T09:59:15.296Z,100030.13
2023-05-21T10:04:08.275Z,100023.22
2023-05-21T10:09:05.431Z,100022.91
2023-05-21T10:14:20.965Z,100005.44
2023-05-21T10:19:14.390Z,100013.19
2023-05-21T10:24:08.577Z,100007.16
2023-05-21T10:29:02.365Z,100005.59
2023-05-21T10:33:55.426Z,100000.03
2023-05-21T10:38:47.491Z,100013.41
2023-05-21T10:44:20.261Z,99999.63
2023-05-21T10:49:33.702Z,99997.84
2023-05-21T10:54:46.781Z,99993.44
2023-05-21T10:59:43.334Z,99989.91
2023-05-21T11:04:39.800Z,99978.22
2023-05-21T11:09:31.857Z,99982.63
2023-05-21T11:14:27.141Z,99977.19
2023-05-21T11:19:19.499Z,99972.13
2023-05-21T11:24:19.391Z,99974.06
2023-05-21T11:29:11.487Z,99960.41
2023-05-21T11:34:11.832Z,99968.59
2023-05-21T11:39:15.480Z,99969.81
2023-05-21T11:44:09.022Z,99959.81
2023-05-21T11:49:01.296Z,99958.13
2023-05-21T11:53:53.037Z,99964.72
2023-05-21T11:58:45.068Z,99954.91
2023-05-21T12:03:36.806Z,99955.06
2023-05-21T12:08:28.606Z,99956.03
2023-05-21T12:13:22.559Z,99951.59
2023-05-21T12:18:16.690Z,99952.66
2023-05-21T12:23:08.266Z,99945.97
2023-05-21T12:28:01.708Z,99934.69
2023-05-21T12:32:53.507Z,99935.22
2023-05-21T12:37:45.277Z,99938.03
2023-05-21T12:42:37.372Z,99927.81
2023-05-21T12:47:30.550Z,99927.00
2023-05-21T12:52:22.659Z,99936.69
2023-05-21T12:57:19.636Z,99929.16
2023-05-21T13:02:14.255Z,99932.66
2023-05-21T13:07:05.896Z,99925.63
2023-05-21T13:11:57.553Z,99945.59
2023-05-21T13:16:49.159Z,99936.34
2023-05-21T13:21:40.916Z,99927.75
2023-05-21T13:26:32.614Z,99931.25
2023-05-21T13:31:24.228Z,99928.41
2023-05-21T13:36:16.069Z,99927.38
2023-05-21T13:41:07.808Z,99923.47
2023-05-21T13:45:59.706Z,99914.91
2023-05-21T13:50:51.362Z,99924.25
2023-05-21T13:55:43.022Z,99915.84
2023-05-21T14:00:34.848Z,99914.03
2023-05-21T14:05:26.633Z,99906.59
2023-05-21T14:10:18.297Z,99900.03
2023-05-21T14:15:10.836Z,99908.47
2023-05-21T14:20:02.812Z,99899.72
2023-05-21T14:24:54.454Z,99899.19
2023-05-21T14:29:46.154Z,99897.91
2023-05-21T14:34:38.599Z,99892.13
2023-05-21T14:39:30.247Z,99889.13
2023-05-21T14:44:21.854Z,99880.69
2023-05-21T14:49:14.639Z,99881.53
2023-05-21T14:54:06.429Z,99884.03
2023-05-21T14:58:58.098Z,99883.44
2023-05-21T15:03:49.858Z,99872.72
2023-05-21T15:08:41.650Z,99894.56
2023-05-21T15:13:33.305Z,99868.38
2023-05-21T15:18:25.005Z,99865.91
2023-05-21T15:23:17.825Z,99868.69
2023-05-21T15:28:09.788Z,99871.44
2023-05-21T15:33:01.690Z,99867.81
2023-05-21T15:37:53.388Z,99853.56
2023-05-21T15:42:45.043Z,99862.09
2023-05-21T15:47:36.767Z,99851.66
2023-05-21T15:52:28.384Z,99852.69
2023-05-21T15:57:20.183Z,99849.41
2023-05-21T16:02:11.961Z,99850.28
2023-05-21T16:07:03.695Z,99855.81
2023-05-21T16:11:55.848Z,99856.72
2023-05-21T16:16:47.488Z,99847.97
2023-05-21T16:21:39.141Z,99847.97
2023-05-21T16:26:30.798Z,99843.56
2023-05-21T16:31:22.734Z,99844.97
2023-05-21T16:36:16.312Z,99846.09
2023-05-21T16:41:09.201Z,99846.91
2023-05-21T16:46:00.902Z,99833.13
2023-05-21T16:50:52.649Z,99840.00
2023-05-21T16:55:44.359Z,99844.41
2023-05-21T17:00:36.839Z,99855.19
2023-05-21T17:05:28.907Z,99849.97
2023-05-21T17:10:20.547Z,99845.28
2023-05-21T17:15:12.452Z,99835.13
2023-05-21T17:20:04.476Z,99836.22
2023-05-21T17:24:56.190Z,99839.25
2023-05-21T17:29:47.810Z,99842.84
2023-05-21T17:34:39.570Z,99837.38
2023-05-21T17:39:31.298Z,99838.75
2023-05-21T17:44:23.143Z,99830.78
2023-05-21T17:49:14.909Z,99835.47
2023-05-21T17:54:08.065Z,99831.88
2023-05-21T17:58:59.732Z,99831.09
2023-05-21T18:03:51.391Z,99836.59
2023-05-21T18:08:43.076Z,99830.28
2023-05-21T18:13:34.722Z,99839.09
2023-05-21T18:18:26.446Z,99842.13
2023-05-21T18:23:18.035Z,99842.16
2023-05-21T18:28:10.555Z,99841.84
2023-05-21T18:33:02.612Z,99844.31
2023-05-21T18:37:54.431Z,99850.66
2023-05-21T18:42:46.211Z,99855.03
2023-05-21T18:47:39.174Z,99848.16
2023-05-21T18:52:31.032Z,99855.31
2023-05-21T18:57:22.717Z,99859.13
2023-05-21T19:02:15.896Z,99862.16
2023-05-21T19:07:07.618Z,99865.19
2023-05-21T19:12:01.042Z,99864.88
2023-05-21T19:16:53.045Z,99864.31
2023-05-21T19:21:44.796Z,99867.06
2023-05-21T19:26:36.445Z,99863.16
2023-05-21T19:31:28.165Z,99868.34
2023-05-21T19:36:21.283Z,99875.69
2023-05-21T19:41:12.883Z,99880.31
2023-05-21T19:46:04.550Z,99887.41
2023-05-21T19:50:56.165Z,99898.66
2023-05-21T19:55:47.901Z,99907.38
2023-05-21T20:00:40.435Z,99904.84
2023-05-21T20:05:32.324Z,99914.59
2023-05-21T20:10:23.989Z,99912.06
2023-05-21T20:15:15.616Z,99915.53
2023-05-21T20:20:10.121Z,99921.47
2023-05-21T20:25:02.829Z,99928.16
2023-05-21T20:29:54.456Z,99926.94
2023-05-21T20:35:01.545Z,99938.56
2023-05-21T20:39:57.922Z,99948.22
2023-05-21T20:44:49.695Z,99951.91
2023-05-21T20:49:41.310Z,99957.53
2023-05-21T20:54:32.889Z,99956.63
2023-05-21T20:59:27.181Z,99956.19
2023-05-21T21:04:19.009Z,99957.69
2023-05-21T21:09:10.727Z,99955.41
2023-05-21T21:14:02.777Z,99950.50
2023-05-21T21:18:54.508Z,99953.69
2023-05-21T21:23:46.298Z,99955.94
2023-05-21T21:28:38.102Z,99953.28
2023-05-21T21:33:29.732Z,99960.72
2023-05-21T21:38:21.523Z,99961.31
2023-05-21T21:43:13.264Z,99966.31
2023-05-21T21:48:05.064Z,99965.91
2023-05-21T21:52:57.327Z,99973.75
2023-05-21T21:57:50.109Z,99980.94
2023-05-21T22:02:42.789Z,99970.56
2023-05-21T22:07:34.992Z,99967.84
2023-05-21T22:12:27.155Z,99968.59
2023-05-21T22:17:18.799Z,99971.84
2023-05-21T22:22:12.078Z,99969.47
2023-05-21T22:27:04.060Z,99959.16
2023-05-21T22:31:55.714Z,99961.56
2023-05-21T22:36:47.413Z,99963.91
2023-05-21T22:41:39.102Z,99959.41
2023-05-21T22:46:30.782Z,99968.19
2023-05-21T22:51:22.410Z,99962.72
2023-05-21T22:56:14.192Z,99960.00
2023-05-21T23:01:05.894Z,99955.94
2023-05-21T23:05:57.531Z,99956.50
2023-05-21T23:10:49.237Z,99960.19
2023-05-21T23:15:43.945Z,99963.25
2023-05-21T23:20:36.856Z,99953.53
2023-05-21T23:25:28.807Z,99953.88
2023-05-21T23:30:20.375Z,99953.59
2023-05-21T23:35:14.438Z,99942.66
2023-05-21T23:40:06.868Z,99955.78
2023-05-21T23:44:58.564Z,99938.56
2023-05-21T23:49:50.140Z,99938.00
2023-05-21T23:54:41.882Z,99942.34
2023-05-21T23:59:33.479Z,99935.31
